createdAt,value
2023-02-05T00:02:23.005Z,100367.56
2023-02-05T00:04:50.507Z,100360.63
2023-02-05T00:07:18.038Z,100368.44
2023-02-05T00:09:45.371Z,100359.78
2023-02-05T00:12:12.717Z,100358.03
2023-02-05T00:14:40.033Z,100357.16
2023-02-05T00:17:07.402Z,100354.56
2023-02-05T00:19:34.768Z,100351.94
2023-02-05T00:22:02.188Z,100342.22
2023-02-05T00:24:29.512Z,100339.47
2023-02-05T00:26:56.836Z,100341.25
2023-02-05T00:29:24.243Z,100339.56
2023-02-05T00:31:52.994Z,100336.00
2023-02-05T00:34:20.461Z,100339.44
2023-02-05T00:36:48.018Z,100329.81
2023-02-05T00:39:16.058Z,100334.31
2023-02-05T00:41:43.404Z,100332.63
2023-02-05T00:44:10.784Z,100331.78
2023-02-05T00:46:38.099Z,100338.75
2023-02-05T00:49:05.435Z,100337.06
2023-02-05T00:51:32.855Z,100337.09
2023-02-05T00:54:00.159Z,100330.19
2023-02-05T00:56:27.542Z,100326.69
2023-02-05T00:58:55.127Z,100329.31
2023-02-05T01:01:22.710Z,100333.53
2023-02-05T01:03:50.099Z,100330.72
2023-02-05T01:06:17.474Z,100333.53
2023-02-05T01:08:45.104Z,100331.88
2023-02-05T01:11:12.403Z,100329.31
2023-02-05T01:13:39.934Z,100332.78
2023-02-05T01:16:07.901Z,100324.88
2023-02-05T01:18:35.321Z,100326.63
2023-02-05T01:21:03.058Z,100323.19
2023-02-05T01:23:30.438Z,100316.31
2023-02-05T01:25:57.900Z,100306.84
2023-02-05T01:28:25.240Z,100303.44
2023-02-05T01:30:52.758Z,100305.13
2023-02-05T01:33:20.458Z,100306.91
2023-02-05T01:35:47.832Z,100318.16
2023-02-05T01:38:15.594Z,100314.69
2023-02-05T01:40:43.120Z,100305.84
2023-02-05T01:43:14.998Z,100308.41
2023-02-05T01:46:15.106Z,100299.81
2023-02-05T01:48:44.778Z,100292.81
2023-02-05T01:51:14.047Z,100292.78
2023-02-05T01:53:41.644Z,100294.34
2023-02-05T01:56:13.210Z,100290.78
2023-02-05T01:58:46.528Z,100284.78
2023-02-05T02:01:13.970Z,100282.22
2023-02-05T02:03:41.801Z,100274.63
2023-02-05T02:06:10.355Z,100275.56
2023-02-05T02:08:38.232Z,100273.00
2023-02-05T02:11:06.523Z,100265.22
2023-02-05T02:13:35.351Z,100266.13
2023-02-05T02:16:06.373Z,100264.38
2023-02-05T02:18:34.375Z,100254.81
2023-02-05T02:21:12.556Z,100249.56
2023-02-05T02:23:45.960Z,100246.91
2023-02-05T02:26:33.599Z,100248.44
2023-02-05T02:29:10.868Z,100245.00
2023-02-05T02:31:46.954Z,100241.69
2023-02-05T02:34:20.568Z,100236.50
2023-02-05T02:37:07.788Z,100243.47
2023-02-05T02:40:00.642Z,100241.72
2023-02-05T02:42:56.850Z,100238.78
2023-02-05T02:45:28.050Z,100239.63
2023-02-05T02:47:57.590Z,100238.00
2023-02-05T02:50:25.730Z,100242.38
2023-02-05T02:52:54.128Z,100235.41
2023-02-05T02:55:22.693Z,100219.69
2023-02-05T02:57:51.951Z,100219.72
2023-02-05T03:00:25.269Z,100219.84
2023-02-05T03:02:57.798Z,100213.00
2023-02-05T03:05:27.040Z,100218.22
2023-02-05T03:08:07.749Z,100213.00
2023-02-05T03:10:41.128Z,100205.22
2023-02-05T03:13:11.612Z,100206.13
2023-02-05T03:15:44.132Z,100217.25
2023-02-05T03:18:13.615Z,100213.00
2023-02-05T03:20:53.958Z,100219.91
2023-02-05T03:23:21.671Z,100220.63
2023-02-05T03:25:49.352Z,100211.09
2023-02-05T03:28:21.132Z,100214.47
2023-02-05T03:31:11.775Z,100209.25
2023-02-05T03:33:55.991Z,100218.00
2023-02-05T03:37:11.563Z,100214.44
2023-02-05T03:39:58.482Z,100201.53
2023-02-05T03:42:58.407Z,100194.69
2023-02-05T03:45:32.230Z,100197.56
2023-02-05T03:48:25.940Z,100196.75
2023-02-05T03:51:02.375Z,100197.44
2023-02-05T03:53:49.620Z,100200.13
2023-02-05T03:56:21.114Z,100200.06
2023-02-05T03:58:50.255Z,100201.81
2023-02-05T04:01:19.511Z,100200.94
2023-02-05T04:03:48.230Z,100195.69
2023-02-05T04:06:15.786Z,100191.47
2023-02-05T04:08:44.550Z,100182.94
2023-02-05T04:11:12.574Z,100179.50
2023-02-05T04:13:40.546Z,100176.84
2023-02-05T04:16:11.023Z,100169.91
2023-02-05T04:18:38.816Z,100180.19
2023-02-05T04:21:06.463Z,100187.22
2023-02-05T04:23:37.365Z,100184.66
2023-02-05T04:26:05.045Z,100178.56
2023-02-05T04:28:38.257Z,100184.50
2023-02-05T04:31:09.067Z,100177.63
2023-02-05T04:33:37.840Z,100181.09
2023-02-05T04:36:06.055Z,100186.31
2023-02-05T04:38:33.757Z,100188.09
2023-02-05T04:41:01.063Z,100183.75
2023-02-05T04:43:28.476Z,100197.56
2023-02-05T04:45:55.863Z,100188.16
2023-02-05T04:48:23.195Z,100185.53
2023-02-05T04:50:50.594Z,100187.31
2023-02-05T04:53:17.955Z,100185.59
2023-02-05T04:55:45.385Z,100179.53
2023-02-05T04:58:12.834Z,100179.53
2023-02-05T05:00:40.170Z,100183.84
2023-02-05T05:03:07.845Z,100181.28
2023-02-05T05:05:36.399Z,100173.41
2023-02-05T05:08:03.900Z,100183.69
2023-02-05T05:10:31.295Z,100183.69
2023-02-05T05:12:58.583Z,100186.31
2023-02-05T05:15:25.913Z,100195.88
2023-02-05T05:17:53.240Z,100198.59
2023-02-05T05:20:20.643Z,100194.38
2023-02-05T05:22:47.923Z,100185.75
2023-02-05T05:25:15.379Z,100197.91
2023-02-05T05:27:42.837Z,100193.56
2023-02-05T05:30:10.830Z,100186.47
2023-02-05T05:32:38.136Z,100189.06
2023-02-05T05:35:05.820Z,100188.19
2023-02-05T05:37:33.162Z,100191.59
2023-02-05T05:40:19.174Z,100189.81
2023-02-05T05:43:05.026Z,100187.19
2023-02-05T05:45:32.630Z,100206.25
2023-02-05T05:48:00.171Z,100207.97
2023-02-05T05:50:27.587Z,100187.97
2023-02-05T05:53:01.774Z,100189.69
2023-02-05T05:55:29.102Z,100186.88
2023-02-05T05:57:56.439Z,100182.53
2023-02-05T06:00:23.875Z,100174.72
2023-02-05T06:02:51.418Z,100163.69
2023-02-05T06:05:18.840Z,100163.84
2023-02-05T06:07:46.186Z,100168.25
2023-02-05T06:10:13.550Z,100162.16
2023-02-05T06:12:40.987Z,100160.25
2023-02-05T06:15:08.880Z,100165.47
2023-02-05T06:17:36.228Z,100172.47
2023-02-05T06:20:04.388Z,100164.50
2023-02-05T06:22:31.739Z,100154.00
2023-02-05T06:24:59.198Z,100161.75
2023-02-05T06:27:26.534Z,100172.28
2023-02-05T06:29:53.879Z,100172.31
2023-02-05T06:32:21.741Z,100167.97
2023-02-05T06:34:49.135Z,100167.03
2023-02-05T06:37:16.419Z,100166.22
2023-02-05T06:39:44.044Z,100165.41
2023-02-05T06:42:11.423Z,100169.69
2023-02-05T06:44:38.716Z,100175.66
2023-02-05T06:47:06.055Z,100182.50
2023-02-05T06:49:33.430Z,100179.66
2023-02-05T06:52:00.882Z,100183.09
2023-02-05T06:54:28.284Z,100189.09
2023-02-05T06:56:55.647Z,100185.69
2023-02-05T06:59:23.015Z,100188.97
2023-02-05T07:01:50.361Z,100186.44
2023-02-05T07:04:17.692Z,100183.72
2023-02-05T07:06:45.049Z,100185.41
2023-02-05T07:09:12.427Z,100187.19
2023-02-05T07:11:39.763Z,100199.38
2023-02-05T07:14:07.095Z,100195.19
2023-02-05T07:16:34.469Z,100202.16
2023-02-05T07:19:01.857Z,100203.13
2023-02-05T07:21:29.585Z,100192.63
2023-02-05T07:23:56.912Z,100194.31
2023-02-05T07:26:24.280Z,100193.19
2023-02-05T07:28:51.631Z,100187.88
2023-02-05T07:31:19.804Z,100180.81
2023-02-05T07:33:47.991Z,100178.13
2023-02-05T07:36:17.606Z,100167.91
2023-02-05T07:38:46.148Z,100160.72
2023-02-05T07:41:15.054Z,100165.22
2023-02-05T07:43:42.680Z,100165.22
2023-02-05T07:46:14.734Z,100166.91
2023-02-05T07:48:42.169Z,100170.31
2023-02-05T07:51:13.136Z,100164.91
2023-02-05T07:53:40.515Z,100172.38
2023-02-05T07:56:07.987Z,100170.56
2023-02-05T07:58:35.643Z,100171.22
2023-02-05T08:01:03.876Z,100164.78
2023-02-05T08:03:31.858Z,100159.50
2023-02-05T08:05:59.419Z,100155.03
2023-02-05T08:08:26.740Z,100161.31
2023-02-05T08:11:16.070Z,100150.09
2023-02-05T08:13:44.257Z,100149.59
2023-02-05T08:16:12.507Z,100156.75
2023-02-05T08:18:39.952Z,100160.84
2023-02-05T08:21:07.392Z,100149.19
2023-02-05T08:23:34.749Z,100152.66
2023-02-05T08:26:02.074Z,100152.34
2023-02-05T08:28:29.795Z,100149.81
2023-02-05T08:30:57.607Z,100154.06
2023-02-05T08:33:25.521Z,100150.34
2023-02-05T08:35:52.924Z,100145.84
2023-02-05T08:38:20.283Z,100144.03
2023-02-05T08:40:47.682Z,100140.50
2023-02-05T08:43:15.017Z,100131.78
2023-02-05T08:45:47.242Z,100134.38
2023-02-05T08:48:14.738Z,100132.75
2023-02-05T08:50:44.709Z,100124.84
2023-02-05T08:53:12.071Z,100121.28
2023-02-05T08:55:39.391Z,100119.28
2023-02-05T08:58:06.788Z,100106.06
2023-02-05T09:00:37.854Z,100100.72
2023-02-05T09:03:06.677Z,100098.13
2023-02-05T09:05:34.304Z,100090.91
2023-02-05T09:08:01.917Z,100081.91
2023-02-05T09:10:29.252Z,100086.13
2023-02-05T09:12:56.664Z,100077.03
2023-02-05T09:15:24.071Z,100081.19
2023-02-05T09:17:51.474Z,100079.34
2023-02-05T09:20:18.951Z,100076.72
2023-02-05T09:22:46.280Z,100081.69
2023-02-05T09:25:13.673Z,100080.09
2023-02-05T09:27:41.194Z,100091.25
2023-02-05T09:30:09.241Z,100089.47
2023-02-05T09:32:36.714Z,100088.78
2023-02-05T09:35:04.028Z,100079.19
2023-02-05T09:37:31.432Z,100075.81
2023-02-05T09:40:28.624Z,100073.50
2023-02-05T09:43:19.295Z,100070.63
2023-02-05T09:46:17.085Z,100067.31
2023-02-05T09:48:49.856Z,100065.78
2023-02-05T09:51:28.794Z,100053.34
2023-02-05T09:53:57.886Z,100050.28
2023-02-05T09:56:26.175Z,100047.84
2023-02-05T09:58:54.944Z,100052.41
2023-02-05T10:01:45.420Z,100050.47
2023-02-05T10:04:13.054Z,100051.06
2023-02-05T10:06:55.431Z,100052.75
2023-02-05T10:09:28.789Z,100042.00
2023-02-05T10:12:37.072Z,100053.31
2023-02-05T10:15:41.729Z,100054.34
2023-02-05T10:18:46.393Z,100054.69
2023-02-05T10:21:39.608Z,100040.69
2023-02-05T10:24:34.594Z,100037.94
2023-02-05T10:27:21.878Z,100040.84
2023-02-05T10:29:55.057Z,100039.91
2023-02-05T10:32:39.553Z,100030.84
2023-02-05T10:35:46.114Z,100026.19
2023-02-05T10:38:29.507Z,100020.44
2023-02-05T10:41:01.376Z,100025.66
2023-02-05T10:44:03.984Z,100008.50
2023-02-05T10:46:34.595Z,100020.53
2023-02-05T10:49:15.952Z,100011.69
2023-02-05T10:51:45.369Z,100001.78
2023-02-05T10:54:30.400Z,100001.53
2023-02-05T10:56:58.662Z,99993.63
2023-02-05T10:59:29.428Z,100001.22
2023-02-05T11:02:01.604Z,99991.72
2023-02-05T11:04:47.453Z,99987.41
2023-02-05T11:07:34.052Z,99988.31
2023-02-05T11:10:28.769Z,99980.41
2023-02-05T11:12:59.725Z,99982.00
2023-02-05T11:15:29.459Z,99978.56
2023-02-05T11:18:06.076Z,99963.75
2023-02-05T11:20:39.083Z,99963.66
2023-02-05T11:23:07.505Z,99955.91
2023-02-05T11:25:34.933Z,99963.56
2023-02-05T11:28:04.062Z,99965.63
2023-02-05T11:30:56.027Z,99962.88
2023-02-05T11:33:22.772Z,99957.41
2023-02-05T11:36:14.922Z,99953.09
2023-02-05T11:38:47.877Z,99949.66
2023-02-05T11:41:48.028Z,99941.56
2023-02-05T11:44:36.395Z,99943.59
2023-02-05T11:47:03.991Z,99952.25
2023-02-05T11:49:34.950Z,99943.66
2023-02-05T11:52:09.205Z,99940.41
2023-02-05T11:54:37.298Z,99930.63
2023-02-05T11:57:18.741Z,99939.22
2023-02-05T12:00:18.515Z,99927.81
2023-02-05T12:02:50.054Z,99930.59
2023-02-05T12:05:17.298Z,99926.41
2023-02-05T12:08:10.533Z,99927.16
2023-02-05T12:10:44.948Z,99928.66
2023-02-05T12:13:22.836Z,99924.16
2023-02-05T12:16:02.313Z,99918.72
2023-02-05T12:19:11.296Z,99921.63
2023-02-05T12:21:46.925Z,99918.13
2023-02-05T12:24:31.385Z,99909.44
2023-02-05T12:27:28.767Z,99903.66
2023-02-05T12:30:11.182Z,99909.31
2023-02-05T12:32:46.232Z,99902.81
2023-02-05T12:35:32.046Z,99905.44
2023-02-05T12:38:32.339Z,99899.34
2023-02-05T12:41:32.556Z,99907.53
2023-02-05T12:44:37.722Z,99905.78
2023-02-05T12:47:23.067Z,99900.31
2023-02-05T12:50:12.147Z,99899.69
2023-02-05T12:53:05.494Z,99896.78
2023-02-05T12:55:41.565Z,99897.72
2023-02-05T12:58:11.664Z,99899.47
2023-02-05T13:00:49.923Z,99902.00
2023-02-05T13:03:33.308Z,99891.59
2023-02-05T13:06:14.275Z,99889.03
2023-02-05T13:09:07.187Z,99892.59
2023-02-05T13:12:05.016Z,99884.06
2023-02-05T13:14:49.228Z,99887.81
2023-02-05T13:17:22.971Z,99887.81
2023-02-05T13:20:00.768Z,99883.50
2023-02-05T13:22:59.361Z,99882.72
2023-02-05T13:26:00.998Z,99871.69
2023-02-05T13:28:50.777Z,99875.97
2023-02-05T13:31:24.172Z,99872.03
2023-02-05T13:33:53.266Z,99883.72
2023-02-05T13:36:29.370Z,99872.50
2023-02-05T13:39:12.952Z,99877.38
2023-02-05T13:42:00.922Z,99864.88
2023-02-05T13:44:55.304Z,99873.34
2023-02-05T13:47:49.813Z,99871.22
2023-02-05T13:50:55.471Z,99873.03
2023-02-05T13:53:37.549Z,99868.53
2023-02-05T13:56:13.609Z,99866.88
2023-02-05T13:59:09.893Z,99870.09
2023-02-05T14:01:58.087Z,99866.66
2023-02-05T14:04:30.505Z,99867.53
2023-02-05T14:07:03.439Z,99859.84
2023-02-05T14:09:41.189Z,99866.13
2023-02-05T14:12:11.262Z,99864.31
2023-02-05T14:14:42.406Z,99864.25
2023-02-05T14:17:28.607Z,99863.75
2023-02-05T14:19:58.419Z,99872.38
2023-02-05T14:22:34.832Z,99870.03
2023-02-05T14:25:02.118Z,99870.22
2023-02-05T14:27:38.737Z,99863.41
2023-02-05T14:30:30.872Z,99872.91
2023-02-05T14:32:58.451Z,99868.97
2023-02-05T14:35:39.986Z,99866.59
2023-02-05T14:38:28.903Z,99879.69
2023-02-05T14:41:13.437Z,99870.94
2023-02-05T14:43:42.113Z,99880.22
2023-02-05T14:46:39.766Z,99874.13
2023-02-05T14:49:20.149Z,99881.03
2023-02-05T14:51:54.654Z,99875.66
2023-02-05T14:54:23.909Z,99874.09
2023-02-05T14:56:54.178Z,99869.09
2023-02-05T14:59:22.530Z,99870.66
2023-02-05T15:01:54.279Z,99875.72
2023-02-05T15:04:54.431Z,99870.50
2023-02-05T15:07:24.571Z,99868.75
2023-02-05T15:10:02.528Z,99872.53
2023-02-05T15:12:42.109Z,99885.53
2023-02-05T15:15:33.013Z,99886.44
2023-02-05T15:18:15.655Z,99884.78
2023-02-05T15:20:47.319Z,99889.31
2023-02-05T15:23:26.143Z,99884.09
2023-02-05T15:26:04.446Z,99885.00
2023-02-05T15:28:39.772Z,99889.22
2023-02-05T15:31:24.069Z,99896.22
2023-02-05T15:34:21.893Z,99887.66
2023-02-05T15:37:04.086Z,99903.28
2023-02-05T15:39:47.464Z,99906.78
2023-02-05T15:42:21.305Z,99907.63
2023-02-05T15:44:48.908Z,99914.56
2023-02-05T15:47:23.209Z,99910.41
2023-02-05T15:49:53.644Z,99921.66
2023-02-05T15:52:29.637Z,99917.34
2023-02-05T15:55:00.290Z,99917.41
2023-02-05T15:57:31.472Z,99929.66
2023-02-05T16:00:00.528Z,99928.81
2023-02-05T16:02:30.402Z,99926.97
2023-02-05T16:05:07.499Z,99933.94
2023-02-05T16:07:42.088Z,99928.75
2023-02-05T16:10:22.016Z,99940.88
2023-02-05T16:13:16.241Z,99944.41
2023-02-05T16:16:05.666Z,99943.53
2023-02-05T16:18:40.391Z,99944.31
2023-02-05T16:21:25.825Z,99937.22
2023-02-05T16:23:58.796Z,99944.22
2023-02-05T16:26:42.788Z,99946.84
2023-02-05T16:29:25.034Z,99947.69
2023-02-05T16:32:06.327Z,99948.59
2023-02-05T16:34:35.321Z,99955.66
2023-02-05T16:37:05.859Z,99952.25
2023-02-05T16:39:41.621Z,99948.91
2023-02-05T16:42:25.516Z,99957.69
2023-02-05T16:45:10.673Z,99962.03
2023-02-05T16:47:38.568Z,99967.03
2023-02-05T16:50:34.151Z,99976.31
2023-02-05T16:53:01.687Z,99974.47
2023-02-05T16:55:30.927Z,99974.66
2023-02-05T16:58:04.844Z,99967.97
2023-02-05T17:00:33.748Z,99975.94
2023-02-05T17:03:16.384Z,99975.16
2023-02-05T17:05:44.456Z,99976.78
2023-02-05T17:08:12.674Z,99981.16
2023-02-05T17:10:54.343Z,99977.72
2023-02-05T17:13:33.875Z,99984.78
2023-02-05T17:16:27.522Z,99996.66
2023-02-05T17:19:03.934Z,100006.50
2023-02-05T17:21:35.531Z,100000.13
2023-02-05T17:24:05.968Z,99996.03
2023-02-05T17:26:36.833Z,99994.72
2023-02-05T17:29:06.907Z,99985.59
2023-02-05T17:31:37.750Z,99992.53
2023-02-05T17:34:05.422Z,99994.97
2023-02-05T17:36:33.127Z,100001.03
2023-02-05T17:39:00.480Z,100003.50
2023-02-05T17:41:49.227Z,100012.91
2023-02-05T17:44:17.389Z,100009.63
2023-02-05T17:46:46.397Z,100011.75
2023-02-05T17:49:13.917Z,100012.00
2023-02-05T17:51:42.238Z,100018.84
2023-02-05T17:54:21.009Z,100030.88
2023-02-05T17:56:49.969Z,100023.13
2023-02-05T17:59:22.161Z,100026.38
2023-02-05T18:01:50.569Z,100019.38
2023-02-05T18:04:21.217Z,100023.00
2023-02-05T18:06:49.692Z,100016.19
2023-02-05T18:09:18.479Z,100016.97
2023-02-05T18:11:45.917Z,100019.31
2023-02-05T18:14:13.446Z,100017.06
2023-02-05T18:16:41.209Z,100018.72
2023-02-05T18:19:08.733Z,100028.22
2023-02-05T18:21:36.201Z,100041.19
2023-02-05T18:24:04.374Z,100050.56
2023-02-05T18:26:32.115Z,100056.88
2023-02-05T18:28:59.436Z,100054.13
2023-02-05T18:31:27.025Z,100052.66
2023-02-05T18:33:54.704Z,100057.41
2023-02-05T18:36:22.107Z,100062.69
2023-02-05T18:38:49.464Z,100059.47
2023-02-05T18:41:23.221Z,100068.16
2023-02-05T18:43:56.897Z,100061.00
2023-02-05T18:46:24.971Z,100073.47
2023-02-05T18:48:54.497Z,100068.25
2023-02-05T18:51:23.300Z,100077.22
2023-02-05T18:53:50.763Z,100081.59
2023-02-05T18:56:28.361Z,100080.84
2023-02-05T18:59:06.018Z,100072.94
2023-02-05T19:01:38.363Z,100073.94
2023-02-05T19:04:11.109Z,100075.56
2023-02-05T19:06:41.616Z,100077.41
2023-02-05T19:09:09.005Z,100081.59
2023-02-05T19:11:40.906Z,100083.38
2023-02-05T19:14:13.371Z,100093.81
2023-02-05T19:16:41.286Z,100092.28
2023-02-05T19:19:08.883Z,100090.50
2023-02-05T19:21:36.283Z,100096.56
2023-02-05T19:24:09.686Z,100098.13
2023-02-05T19:26:38.941Z,100096.50
2023-02-05T19:29:08.527Z,100092.13
2023-02-05T19:31:37.475Z,100097.28
2023-02-05T19:34:05.328Z,100094.66
2023-02-05T19:36:32.900Z,100097.25
2023-02-05T19:39:01.597Z,100089.66
2023-02-05T19:41:29.341Z,100094.81
2023-02-05T19:44:02.515Z,100102.47
2023-02-05T19:46:31.931Z,100105.13
2023-02-05T19:49:07.490Z,100114.69
2023-02-05T19:51:34.910Z,100117.03
2023-02-05T19:54:06.670Z,100126.59
2023-02-05T19:56:38.043Z,100128.59
2023-02-05T19:59:06.547Z,100125.97
2023-02-05T20:01:36.282Z,100129.47
2023-02-05T20:04:17.467Z,100123.44
2023-02-05T20:06:46.314Z,100131.13
2023-02-05T20:09:14.482Z,100139.94
2023-02-05T20:11:43.616Z,100150.47
2023-02-05T20:14:11.701Z,100156.47
2023-02-05T20:16:40.422Z,100153.06
2023-02-05T20:19:10.042Z,100162.78
2023-02-05T20:21:38.548Z,100162.66
2023-02-05T20:24:07.422Z,100164.31
2023-02-05T20:26:36.034Z,100173.66
2023-02-05T20:29:21.904Z,100178.88
2023-02-05T20:31:51.107Z,100172.09
2023-02-05T20:34:26.706Z,100172.44
2023-02-05T20:36:57.290Z,100173.44
2023-02-05T20:39:28.525Z,100171.63
2023-02-05T20:41:57.917Z,100166.72
2023-02-05T20:44:26.986Z,100175.19
2023-02-05T20:46:54.624Z,100171.41
2023-02-05T20:49:21.997Z,100172.25
2023-02-05T20:51:49.391Z,100174.06
2023-02-05T20:54:17.347Z,100172.25
2023-02-05T20:56:44.646Z,100166.81
2023-02-05T20:59:12.768Z,100161.75
2023-02-05T21:01:41.124Z,100170.44
2023-02-05T21:04:09.719Z,100176.81
2023-02-05T21:06:39.836Z,100170.84
2023-02-05T21:09:09.186Z,100174.44
2023-02-05T21:11:36.934Z,100168.78
2023-02-05T21:14:04.625Z,100166.38
2023-02-05T21:16:34.208Z,100180.72
2023-02-05T21:19:02.712Z,100198.00
2023-02-05T21:21:32.332Z,100209.44
2023-02-05T21:24:01.919Z,100211.13
2023-02-05T21:26:32.089Z,100212.91
2023-02-05T21:29:02.308Z,100218.09
2023-02-05T21:31:33.986Z,100218.81
2023-02-05T21:34:07.194Z,100217.13
2023-02-05T21:36:35.069Z,100225.00
2023-02-05T21:39:02.947Z,100234.41
2023-02-05T21:41:30.515Z,100232.16
2023-02-05T21:43:59.522Z,100239.44
2023-02-05T21:46:29.281Z,100245.00
2023-02-05T21:48:58.510Z,100244.06
2023-02-05T21:51:31.134Z,100250.53
2023-02-05T21:54:00.789Z,100242.91
2023-02-05T21:56:37.448Z,100242.06
2023-02-05T21:59:05.529Z,100240.41
2023-02-05T22:01:34.861Z,100242.19
2023-02-05T22:04:09.076Z,100251.75
2023-02-05T22:06:36.770Z,100254.38
2023-02-05T22:09:06.693Z,100255.19
2023-02-05T22:11:34.937Z,100258.78
2023-02-05T22:14:02.405Z,100264.91
2023-02-05T22:16:32.408Z,100265.84
2023-02-05T22:19:00.844Z,100278.06
2023-02-05T22:21:30.339Z,100283.97
2023-02-05T22:23:59.989Z,100283.00
2023-02-05T22:26:30.550Z,100284.88
2023-02-05T22:28:59.300Z,100289.31
2023-02-05T22:31:27.667Z,100288.50
2023-02-05T22:33:55.816Z,100297.19
2023-02-05T22:36:25.420Z,100293.72
2023-02-05T22:38:53.259Z,100302.34
2023-02-05T22:41:25.699Z,100319.78
2023-02-05T22:43:54.518Z,100317.16
2023-02-05T22:46:24.301Z,100321.47
2023-02-05T22:48:52.587Z,100319.63
2023-02-05T22:51:32.050Z,100335.28
2023-02-05T22:53:59.985Z,100336.13
2023-02-05T22:56:27.676Z,100346.63
2023-02-05T22:58:56.076Z,100344.94
2023-02-05T23:01:28.450Z,100351.03
2023-02-05T23:03:56.872Z,100342.31
2023-02-05T23:06:33.268Z,100343.22
2023-02-05T23:09:04.122Z,100344.94
2023-02-05T23:11:32.661Z,100346.59
2023-02-05T23:14:00.644Z,100350.81
2023-02-05T23:16:30.660Z,100344.72
2023-02-05T23:19:04.192Z,100345.63
2023-02-05T23:21:33.307Z,100337.56
2023-02-05T23:24:00.735Z,100353.28
2023-02-05T23:26:39.673Z,100359.50
2023-02-05T23:29:07.620Z,100355.13
2023-02-05T23:31:36.315Z,100348.28
2023-02-05T23:34:03.745Z,100355.25
2023-02-05T23:36:31.113Z,100357.22
2023-02-05T23:38:58.596Z,100367.75
2023-02-05T23:41:39.613Z,100363.44
2023-02-05T23:44:13.145Z,100371.25
2023-02-05T23:46:41.921Z,100373.81
2023-02-05T23:49:09.301Z,100375.56
2023-02-05T23:51:37.798Z,100375.59
2023-02-05T23:54:06.625Z,100380.72
2023-02-05T23:56:34.403Z,100372.00
2023-02-05T23:59:02.204Z,100372.00
